EW6330 Weather Reports


Display with metric or nautical units.
time (UTC)temp
F
wind
direction
speed
MPH
gust
MPH
rain 1hr
in
rain 24hr
in
rain mn
in
humidity
%
barometer
mb
20240529062521 70 0 0.0 1.0 0.00 0.00 0.00 20 1014.6
20240529062022 70 0 0.0 1.0 0.00 0.00 0.00 20 1014.6
20240529061532 70 0 0.0 1.0 0.00 0.00 0.00 20 1014.6
20240529061023 69 0 0.0 1.0 0.00 0.00 0.00 20 1014.6
20240529060525 69 0 0.0 0.0 0.00 0.00 0.00 22 1014.5
20240529060031 70 0 0.0 1.0 0.00 0.00 0.00 21 1014.5
20240529055521 69 0 0.0 1.0 0.00 0.00 0.00 21 1014.6
20240529055022 69 0 0.0 0.0 0.00 0.00 0.00 21 1014.6
20240529054523 70 0 0.0 1.0 0.00 0.00 0.00 21 1014.7
20240529054022 70 0 0.0 1.0 0.00 0.00 0.00 18 1014.6
20240529053522 70 0 0.0 0.0 0.00 0.00 0.00 21 1014.7
20240529053025 70 0 0.0 0.0 0.00 0.00 0.00 23 1014.7
20240529052523 71 0 0.0 0.0 0.00 0.00 0.00 22 1014.6
20240529052022 72 0 0.0 0.0 0.00 0.00 0.00 24 1014.6
20240529051524 72 0 0.0 0.0 0.00 0.00 0.00 18 1014.6
20240529051022 72 0 0.0 0.0 0.00 0.00 0.00 18 1014.6
20240529050521 72 0 0.0 0.0 0.00 0.00 0.00 20 1014.5
20240529050030 72 0 0.0 0.0 0.00 0.00 0.00 18 1014.6
20240529045525 72 0 0.0 0.0 0.00 0.00 0.00 20 1014.6
20240529045022 73 0 0.0 0.0 0.00 0.00 0.00 20 1014.6
20240529044526 74 0 0.0 0.0 0.00 0.00 0.00 19 1014.6
20240529044021 75 0 0.0 0.0 0.00 0.00 0.00 19 1014.6
20240529043522 75 0 0.0 0.0 0.00 0.00 0.00 16 1014.6
20240529043027 75 0 0.0 0.0 0.00 0.00 0.00 17 1014.5
20240529042521 76 0 0.0 1.0 0.00 0.00 0.00 17 1014.3
20240529042022 77 0 0.0 1.0 0.00 0.00 0.00 15 1014.3
20240529041538 76 0 0.0 1.0 0.00 0.00 0.00 15 1014.3
20240529041023 77 0 0.0 1.0 0.00 0.00 0.00 16 1014.4
20240529040522 78 0 0.0 1.0 0.00 0.00 0.00 17 1014.2
20240529040038 78 0 0.0 1.0 0.00 0.00 0.00 15 1014.2
20240529035522 79 0 0.0 1.0 0.00 0.00 0.00 14 1014.0
20240529035053 79 0 0.0 1.0 0.00 0.00 0.00 13 1014.0
20240529035009 79 0 0.0 1.0 0.00 0.00 0.00 13 1013.9
20240529034004 80 0 0.0 1.0 0.00 0.00 0.00 13 1013.6
20240529032615 80 0 0.0 1.0 0.00 0.00 0.00 13 1013.7
20240529030815 82 0 0.0 2.0 0.00 0.00 0.00 12 1013.5
20240529025429 85 0 0.0 4.0 0.00 0.00 0.00 10 1013.6
20240529024047 85 131 0.0 4.0 0.00 0.00 0.00 10 1013.6
20240529022919 87 174 0.0 4.0 0.00 0.00 0.00 8 1013.3
20240529021500 88 0 0.0 5.0 0.00 0.00 0.00 8 1013.3
20240529015222 89 188 5.0 10.0 0.00 0.00 0.00 7 1012.9
20240529013947 90 209 7.0 13.0 0.00 0.00 0.00 7 1012.7
20240529012637 90 208 6.0 13.0 0.00 0.00 0.00 7 1012.6
20240529011235 91 214 6.0 15.0 0.00 0.00 0.00 7 1012.5
20240529005623 91 155 6.0 15.0 0.00 0.00 0.00 7 1012.6
20240529005455 92 182 4.0 11.0 0.00 0.00 0.00 7 1012.6
20240529004104 92 195 5.0 15.0 0.00 0.00 0.00 7 1012.7
20240529002650 93 236 6.0 15.0 0.00 0.00 0.00 8 1012.7
20240529001252 93 205 7.0 15.0 0.00 0.00 0.00 7 1012.7
20240529000020 93 168 5.0 13.0 0.00 0.00 0.00 7 1012.5
20240528234051 94 145 8.0 16.0 0.00 0.00 0.00 7 1012.7
20240528232628 94 170 8.0 30.0 0.00 0.00 0.00 8 1012.7
20240528232158 94 226 4.0 13.0 0.00 0.00 0.00 8 1012.8
20240528230959 93 166 5.0 16.0 0.00 0.00 0.00 8 1012.9
20240528225714 94 219 8.0 16.0 0.00 0.00 0.00 8 1013.1
20240528224245 94 217 8.0 16.0 0.00 0.00 0.00 8 1013.1
20240528223523 94 209 8.0 14.0 0.00 0.00 0.00 8 1013.1
20240528223036 94 203 9.0 14.0 0.00 0.00 0.00 8 1013.1
20240528222525 94 188 6.0 12.0 0.00 0.00 0.00 8 1013.1
20240528222023 94 169 3.0 12.0 0.00 0.00 0.00 9 1013.2
20240528221524 94 116 4.0 12.0 0.00 0.00 0.00 8 1013.2
20240528221023 94 206 5.0 12.0 0.00 0.00 0.00 8 1013.5
20240528220523 94 178 3.0 11.0 0.00 0.00 0.00 8 1013.4
20240528220029 94 232 4.0 11.0 0.00 0.00 0.00 8 1013.4
20240528215522 94 226 6.0 11.0 0.00 0.00 0.00 8 1013.6
20240528215021 93 180 5.0 13.0 0.00 0.00 0.00 9 1013.6
20240528214524 93 150 4.0 13.0 0.00 0.00 0.00 9 1013.7
20240528214021 94 120 6.0 15.0 0.00 0.00 0.00 8 1013.6
20240528213521 94 90 6.0 15.0 0.00 0.00 0.00 8 1013.7
20240528213035 94 181 6.0 14.0 0.00 0.00 0.00 8 1013.7
20240528212523 94 169 5.0 15.0 0.00 0.00 0.00 8 1013.7
20240528212020 93 168 7.0 15.0 0.00 0.00 0.00 8 1013.9
20240528211526 93 137 6.0 17.0 0.00 0.00 0.00 9 1013.9
20240528211021 93 134 5.0 17.0 0.00 0.00 0.00 9 1013.9
20240528210523 93 150 6.0 17.0 0.00 0.00 0.00 10 1014.0
20240528210029 94 150 3.0 8.0 0.00 0.00 0.00 9 1014.1
20240528205524 94 122 1.0 6.0 0.00 0.00 0.00 11 1014.1
20240528205023 93 82 0.0 6.0 0.00 0.00 0.00 13 1014.2
20240528204533 92 62 2.0 9.0 0.00 0.00 0.00 13 1014.3
20240528204023 92 105 4.0 9.0 0.00 0.00 0.00 9 1014.3
20240528203523 93 65 0.0 5.0 0.00 0.00 0.00 12 1014.4
20240528203025 92 0 2.0 5.0 0.00 0.00 0.00 10 1014.4
20240528202523 92 0 0.0 10.0 0.00 0.00 0.00 11 1014.5
20240528202023 91 210 3.0 10.0 0.00 0.00 0.00 8 1014.7
20240528201530 92 75 4.0 9.0 0.00 0.00 0.00 11 1014.7
20240528201021 92 86 2.0 9.0 0.00 0.00 0.00 12 1014.7
20240528200523 92 77 4.0 9.0 0.00 0.00 0.00 11 1014.9
20240528200033 91 0 3.0 8.0 0.00 0.00 0.00 12 1014.9
20240528195522 92 80 2.0 6.0 0.00 0.00 0.00 10 1015.0
20240528195026 93 156 0.0 6.0 0.00 0.00 0.00 13 1015.0
20240528194530 94 0 0.0 3.0 0.00 0.00 0.00 10 1015.2
20240528194023 94 0 0.0 3.0 0.00 0.00 0.00 13 1015.2
20240528193521 94 0 0.0 2.0 0.00 0.00 0.00 13 1015.3
20240528193024 93 0 0.0 2.0 0.00 0.00 0.00 12 1015.4
20240528192524 92 0 0.0 3.0 0.00 0.00 0.00 11 1015.4
20240528192023 91 0 0.0 5.0 0.00 0.00 0.00 14 1015.6
20240528191533 89 0 1.0 6.0 0.00 0.00 0.00 12 1015.8
20240528191025 89 0 2.0 6.0 0.00 0.00 0.00 11 1015.9
20240528190523 89 198 2.0 8.0 0.00 0.00 0.00 12 1015.9
20240528190035 88 83 1.0 8.0 0.00 0.00 0.00 13 1016.0
20240528185521 89 65 2.0 8.0 0.00 0.00 0.00 13 1016.1
20240528185025 89 0 0.0 6.0 0.00 0.00 0.00 14 1016.0
20240528184537 87 77 3.0 7.0 0.00 0.00 0.00 14 1016.1
20240528184021 87 72 4.0 7.0 0.00 0.00 0.00 13 1016.2
20240528183521 88 112 2.0 6.0 0.00 0.00 0.00 16 1016.2
20240528183027 87 76 1.0 6.0 0.00 0.00 0.00 14 1016.3
20240528182525 87 104 2.0 6.0 0.00 0.00 0.00 14 1016.4
20240528182022 86 113 3.0 6.0 0.00 0.00 0.00 14 1016.3
20240528181528 86 117 0.0 6.0 0.00 0.00 0.00 14 1016.4
20240528181022 86 109 1.0 6.0 0.00 0.00 0.00 16 1016.5
20240528180520 86 179 2.0 5.0 0.00 0.00 0.00 14 1016.5
20240528180030 86 76 0.0 3.0 0.00 0.00 0.00 16 1016.6
20240528175524 86 74 1.0 4.0 0.00 0.00 0.00 15 1016.5
20240528175024 85 140 0.0 4.0 0.00 0.00 0.00 15 1016.6
20240528174528 85 0 2.0 4.0 0.00 0.00 0.00 16 1016.6
20240528174023 84 0 0.0 4.0 0.00 0.00 0.00 15 1016.6
20240528173524 83 98 1.0 4.0 0.00 0.00 0.00 15 1016.7
20240528173032 83 90 1.0 4.0 0.00 0.00 0.00 15 1016.7
20240528172523 84 64 1.0 4.0 0.00 0.00 0.00 16 1016.8
20240528172021 83 0 0.0 4.0 0.00 0.00 0.00 14 1016.9
20240528171526 83 51 0.0 4.0 0.00 0.00 0.00 15 1016.9
20240528171021 82 141 0.0 4.0 0.00 0.00 0.00 15 1016.9
20240528170522 82 127 1.0 3.0 0.00 0.00 0.00 17 1017.0
20240528170033 81 0 0.0 3.0 0.00 0.00 0.00 17 1017.0
20240528165521 81 76 1.0 4.0 0.00 0.00 0.00 17 1017.1
20240528165020 81 0 1.0 4.0 0.00 0.00 0.00 18 1017.1
20240528164523 81 61 0.0 4.0 0.00 0.00 0.00 20 1017.1
20240528164020 80 0 0.0 4.0 0.00 0.00 0.00 22 1017.1
20240528163520 79 101 1.0 3.0 0.00 0.00 0.00 24 1017.1
20240528163024 78 107 1.0 3.0 0.00 0.00 0.00 24 1017.2
20240528162524 77 96 1.0 3.0 0.00 0.00 0.00 25 1017.3
20240528162020 77 89 1.0 3.0 0.00 0.00 0.00 23 1017.3
20240528161527 77 0 0.0 3.0 0.00 0.00 0.00 22 1017.4
20240528161024 76 105 0.0 4.0 0.00 0.00 0.00 23 1017.5
20240528160521 76 0 0.0 4.0 0.00 0.00 0.00 22 1017.5
20240528160033 75 0 1.0 4.0 0.00 0.00 0.00 23 1017.5
20240528155523 75 98 0.0 3.0 0.00 0.00 0.00 25 1017.6
20240528155021 74 115 1.0 3.0 0.00 0.00 0.00 25 1017.6
20240528154526 74 0 0.0 3.0 0.00 0.00 0.00 27 1017.7
20240528154022 74 0 0.0 2.0 0.00 0.00 0.00 26 1017.7
20240528153521 74 0 0.0 2.0 0.00 0.00 0.00 23 1017.7
20240528153025 73 0 0.0 3.0 0.00 0.00 0.00 25 1017.7
20240528152521 73 0 0.0 3.0 0.00 0.00 0.00 27 1017.7
20240528152021 72 117 0.0 3.0 0.00 0.00 0.00 25 1017.7
20240528151537 72 0 0.0 2.0 0.00 0.00 0.00 27 1017.7
20240528151022 71 0 0.0 2.0 0.00 0.00 0.00 30 1017.8
20240528150523 71 94 0.0 1.0 0.00 0.00 0.00 29 1017.7
20240528150024 71 0 0.0 2.0 0.00 0.00 0.00 29 1017.7
20240528145521 70 0 0.0 2.0 0.00 0.00 0.00 35 1017.7
20240528145025 70 0 0.0 1.0 0.00 0.00 0.00 35 1017.7
20240528144525 69 0 0.0 2.0 0.00 0.00 0.00 33 1017.6
20240528144021 69 0 0.0 2.0 0.00 0.00 0.00 33 1017.7
20240528143543 69 269 0.0 0.0 0.00 0.00 0.00 31 1017.7
20240528143025 69 0 0.0 0.0 0.00 0.00 0.00 30 1017.7
20240528142523 68 0 0.0 0.0 0.00 0.00 0.00 33 1017.7
20240528142023 68 0 0.0 0.0 0.00 0.00 0.00 33 1017.6
20240528141533 68 0 0.0 0.0 0.00 0.00 0.00 33 1017.6
20240528141026 67 0 0.0 0.0 0.00 0.00 0.00 32 1017.6
20240528140523 66 0 0.0 0.0 0.00 0.00 0.00 38 1017.6
20240528140025 66 0 0.0 0.0 0.00 0.00 0.00 42 1017.5
20240528135522 66 0 0.0 0.0 0.00 0.00 0.00 42 1017.5
20240528135022 66 0 0.0 0.0 0.00 0.00 0.00 42 1017.4
20240528134526 64 0 0.0 0.0 0.00 0.00 0.00 42 1017.4
20240528134022 62 0 0.0 0.0 0.00 0.00 0.00 34 1017.3
20240528133523 61 0 0.0 0.0 0.00 0.00 0.00 39 1017.3
20240528133033 60 0 0.0 0.0 0.00 0.00 0.00 43 1017.2
20240528132522 62 0 0.0 2.0 0.00 0.00 0.00 43 1017.2
20240528132023 62 0 0.0 2.0 0.00 0.00 0.00 43 1017.2
20240528131535 60 0 0.0 0.0 0.00 0.00 0.00 36 1017.2
20240528131023 60 0 0.0 0.0 0.00 0.00 0.00 41 1017.1
20240528130523 59 0 0.0 0.0 0.00 0.00 0.00 43 1017.1
20240528130029 59 0 0.0 0.0 0.00 0.00 0.00 40 1017.0
20240528125522 58 0 0.0 0.0 0.00 0.00 0.00 41 1016.9
20240528125023 56 0 0.0 0.0 0.00 0.00 0.00 38 1016.8
20240528124610 55 0 0.0 0.0 0.00 0.00 0.00 36 1016.9
20240528124022 55 0 0.0 0.0 0.00 0.00 0.00 41 1016.8
20240528123522 54 0 0.0 0.0 0.00 0.00 0.00 41 1016.6
20240528123024 54 0 0.0 0.0 0.00 0.00 0.00 41 1016.7
20240528122523 54 0 0.0 0.0 0.00 0.00 0.00 39 1016.5
20240528122022 53 0 0.0 0.0 0.00 0.00 0.00 38 1016.5
20240528121526 54 0 0.0 0.0 0.00 0.00 0.00 43 1016.5
20240528121022 54 0 0.0 0.0 0.00 0.00 0.00 39 1016.4
20240528120522 54 0 0.0 0.0 0.00 0.00 0.00 37 1016.4
20240528120025 54 0 0.0 0.0 0.00 0.00 0.00 39 1016.4
20240528115522 54 0 0.0 0.0 0.00 0.00 0.00 41 1016.3
20240528115022 56 0 0.0 0.0 0.00 0.00 0.00 44 1016.3
20240528114525 56 0 0.0 0.0 0.00 0.00 0.00 37 1016.3
20240528114022 55 0 0.0 0.0 0.00 0.00 0.00 36 1016.2
20240528113522 54 0 0.0 0.0 0.00 0.00 0.00 38 1016.3
20240528113104 54 0 0.0 0.0 0.00 0.00 0.00 43 1016.2
20240528112521 54 0 0.0 0.0 0.00 0.00 0.00 40 1016.2
20240528112021 55 0 0.0 0.0 0.00 0.00 0.00 44 1016.2
20240528111527 54 0 0.0 0.0 0.00 0.00 0.00 38 1016.2
20240528111020 54 0 0.0 0.0 0.00 0.00 0.00 44 1016.2
20240528110521 53 0 0.0 0.0 0.00 0.00 0.00 46 1016.2
20240528110023 53 0 0.0 0.0 0.00 0.00 0.00 46 1016.1
20240528105523 53 0 0.0 0.0 0.00 0.00 0.00 46 1016.0
20240528105022 54 0 0.0 0.0 0.00 0.00 0.00 48 1016.0
20240528104533 55 0 0.0 0.0 0.00 0.00 0.00 45 1015.9
20240528104021 55 0 0.0 0.0 0.00 0.00 0.00 43 1015.9
20240528103521 56 0 0.0 0.0 0.00 0.00 0.00 41 1015.8
20240528103033 56 0 0.0 0.0 0.00 0.00 0.00 34 1015.9
20240528102521 55 0 0.0 0.0 0.00 0.00 0.00 36 1015.8
20240528102022 55 0 0.0 0.0 0.00 0.00 0.00 47 1015.8
20240528101530 56 0 0.0 0.0 0.00 0.00 0.00 43 1015.8
20240528101021 57 0 0.0 0.0 0.00 0.00 0.00 39 1015.8
20240528100521 58 0 0.0 0.0 0.00 0.00 0.00 35 1015.8
20240528100024 58 0 0.0 0.0 0.00 0.00 0.00 32 1015.8
20240528095522 58 0 0.0 0.0 0.00 0.00 0.00 33 1015.8
20240528095021 57 0 0.0 0.0 0.00 0.00 0.00 40 1015.8
20240528094527 58 0 0.0 0.0 0.00 0.00 0.00 36 1015.7
20240528094021 59 0 0.0 0.0 0.00 0.00 0.00 31 1015.8
20240528093522 59 0 0.0 0.0 0.00 0.00 0.00 31 1015.8
20240528093026 60 0 0.0 0.0 0.00 0.00 0.00 32 1015.7
20240528092521 59 0 0.0 0.0 0.00 0.00 0.00 29 1015.7
20240528092022 59 0 0.0 0.0 0.00 0.00 0.00 29 1015.7
20240528091525 59 0 0.0 0.0 0.00 0.00 0.00 32 1015.6
20240528091024 59 0 0.0 0.0 0.00 0.00 0.00 34 1015.7
20240528090521 59 0 0.0 0.0 0.00 0.00 0.00 31 1015.7
20240528090027 59 0 0.0 0.0 0.00 0.00 0.00 35 1015.8
20240528085522 60 0 0.0 0.0 0.00 0.00 0.00 35 1015.8
20240528085021 61 0 0.0 0.0 0.00 0.00 0.00 31 1015.7
20240528084523 61 0 0.0 0.0 0.00 0.00 0.00 28 1015.7
20240528084021 60 0 0.0 0.0 0.00 0.00 0.00 29 1015.8
20240528083521 60 0 0.0 0.0 0.00 0.00 0.00 31 1015.7
20240528083023 59 0 0.0 0.0 0.00 0.00 0.00 32 1015.7
20240528082522 59 0 0.0 0.0 0.00 0.00 0.00 33 1015.7
20240528082022 59 0 0.0 0.0 0.00 0.00 0.00 38 1015.7
20240528081526 60 0 0.0 0.0 0.00 0.00 0.00 30 1015.7
20240528081022 60 0 0.0 0.0 0.00 0.00 0.00 30 1015.8
20240528080522 60 0 0.0 0.0 0.00 0.00 0.00 30 1015.9
20240528080027 60 0 0.0 0.0 0.00 0.00 0.00 35 1015.9
20240528075522 60 0 0.0 0.0 0.00 0.00 0.00 32 1015.9
20240528075021 60 0 0.0 0.0 0.00 0.00 0.00 33 1015.9
20240528074526 60 0 0.0 0.0 0.00 0.00 0.00 33 1016.1
20240528074022 61 0 0.0 0.0 0.00 0.00 0.00 35 1016.1
20240528073523 62 0 0.0 0.0 0.00 0.00 0.00 30 1016.1
20240528073026 63 0 0.0 0.0 0.00 0.00 0.00 32 1016.2
20240528072522 64 0 0.0 0.0 0.00 0.00 0.00 31 1016.1
20240528072022 65 0 0.0 0.0 0.00 0.00 0.00 27 1016.2
20240528071529 65 0 0.0 0.0 0.00 0.00 0.00 24 1016.2
20240528071021 65 0 0.0 0.0 0.00 0.00 0.00 23 1016.2
20240528070522 65 0 0.0 0.0 0.00 0.00 0.00 24 1016.2
20240528070028 67 0 0.0 0.0 0.00 0.00 0.00 31 1016.2
20240528065524 68 0 0.0 1.0 0.00 0.00 0.00 22 1016.2
20240528065022 68 0 0.0 1.0 0.00 0.00 0.00 22 1016.2
20240528064531 68 0 0.0 1.0 0.00 0.00 0.00 21 1016.2
20240528064023 68 0 0.0 1.0 0.00 0.00 0.00 20 1016.2
20240528063521 67 0 0.0 0.0 0.00 0.00 0.00 21 1016.2
20240528063028 66 0 0.0 0.0 0.00 0.00 0.00 23 1016.2